createdAt,value
2022-09-22T00:02:01.967Z,8.60
2022-09-22T00:07:06.221Z,8.68
2022-09-22T00:12:09.070Z,8.41
2022-09-22T00:17:12.273Z,8.21
2022-09-22T00:22:16.425Z,8.07
2022-09-22T00:27:19.244Z,8.04
2022-09-22T00:32:21.842Z,7.99
2022-09-22T00:37:26.143Z,7.99
2022-09-22T00:42:29.156Z,7.98
2022-09-22T00:47:36.017Z,7.99
2022-09-22T00:52:48.054Z,8.01
2022-09-22T00:57:54.109Z,7.91
2022-09-22T01:03:00.232Z,7.81
2022-09-22T01:08:04.545Z,7.81
2022-09-22T01:13:21.494Z,7.78
2022-09-22T01:18:34.941Z,7.72
2022-09-22T01:24:17.255Z,7.72
2022-09-22T01:29:53.741Z,7.68
2022-09-22T01:35:05.236Z,7.62
2022-09-22T01:40:13.263Z,7.54
2022-09-22T01:45:19.383Z,7.52
2022-09-22T01:50:28.277Z,7.44
2022-09-22T01:55:34.868Z,7.37
2022-09-22T02:00:41.889Z,7.34
2022-09-22T02:05:48.652Z,7.30
2022-09-22T02:10:54.609Z,7.29
2022-09-22T02:16:03.485Z,7.24
2022-09-22T02:21:07.744Z,7.20
2022-09-22T02:26:12.605Z,7.21
2022-09-22T02:31:20.818Z,7.17
2022-09-22T02:36:39.870Z,7.14
2022-09-22T02:41:57.169Z,7.09
2022-09-22T02:47:05.104Z,6.85
2022-09-22T02:52:13.884Z,6.72
2022-09-22T02:57:16.697Z,6.73
2022-09-22T03:02:19.590Z,6.77
2022-09-22T03:07:23.749Z,6.83
2022-09-22T03:12:26.547Z,6.80
2022-09-22T03:17:29.224Z,6.78
2022-09-22T03:22:33.494Z,6.76
2022-09-22T03:27:36.331Z,6.72
2022-09-22T03:32:39.741Z,6.67
2022-09-22T03:37:43.981Z,6.73
2022-09-22T03:42:46.930Z,6.71
2022-09-22T03:47:49.806Z,6.61
2022-09-22T03:52:54.009Z,6.59
2022-09-22T03:57:56.823Z,6.49
2022-09-22T04:02:59.963Z,6.46
2022-09-22T04:08:04.515Z,6.27
2022-09-22T04:13:07.341Z,6.34
2022-09-22T04:18:10.343Z,6.38
2022-09-22T04:23:17.242Z,6.44
2022-09-22T04:28:20.321Z,6.43
2022-09-22T04:33:23.472Z,6.39
2022-09-22T04:38:27.802Z,6.38
2022-09-22T04:43:30.641Z,6.33
2022-09-22T04:48:33.476Z,6.26
2022-09-22T04:53:37.656Z,6.11
2022-09-22T04:58:40.587Z,6.09
2022-09-22T05:03:43.429Z,6.13
2022-09-22T05:08:47.579Z,6.15
2022-09-22T05:13:50.920Z,6.21
2022-09-22T05:18:53.981Z,6.26
2022-09-22T05:23:58.248Z,6.22
2022-09-22T05:29:01.209Z,6.27
2022-09-22T05:34:04.079Z,6.36
2022-09-22T05:39:08.223Z,6.36
2022-09-22T05:44:11.092Z,6.34
2022-09-22T05:49:13.924Z,6.73
2022-09-22T05:54:22.535Z,7.18
2022-09-22T05:59:26.172Z,7.52
2022-09-22T06:04:29.028Z,7.73
2022-09-22T06:09:33.499Z,7.89
2022-09-22T06:14:36.308Z,8.15
2022-09-22T06:19:39.047Z,8.28
2022-09-22T06:24:43.280Z,8.56
2022-09-22T06:29:46.131Z,9.00
2022-09-22T06:34:51.871Z,9.23
2022-09-22T06:39:56.051Z,9.60
2022-09-22T06:44:58.851Z,9.86
2022-09-22T06:50:05.587Z,10.04
2022-09-22T06:55:10.761Z,10.14
2022-09-22T07:00:15.100Z,10.24
2022-09-22T07:05:21.274Z,10.59
2022-09-22T07:10:25.474Z,10.85
2022-09-22T07:15:30.092Z,11.15
2022-09-22T07:20:33.632Z,11.52
2022-09-22T07:25:37.813Z,11.91
2022-09-22T07:30:41.945Z,11.81
2022-09-22T07:35:44.702Z,12.01
2022-09-22T07:40:54.420Z,12.29
2022-09-22T07:45:57.849Z,12.34
2022-09-22T07:51:00.642Z,12.60
2022-09-22T07:56:07.265Z,13.08
2022-09-22T08:01:10.986Z,13.69
2022-09-22T08:06:16.057Z,14.25
2022-09-22T08:11:22.137Z,14.44
2022-09-22T08:16:28.253Z,14.52
2022-09-22T08:21:35.347Z,14.71
2022-09-22T08:26:42.732Z,14.66
2022-09-22T08:31:49.617Z,15.10
2022-09-22T08:36:52.950Z,15.35
2022-09-22T08:42:05.992Z,15.67
2022-09-22T08:47:37.958Z,15.91
2022-09-22T08:52:46.863Z,16.54
2022-09-22T08:58:07.203Z,16.84
2022-09-22T09:03:27.657Z,17.40
2022-09-22T09:09:05.551Z,17.57
2022-09-22T09:14:24.211Z,17.53
2022-09-22T09:19:33.703Z,17.48
2022-09-22T09:30:11.311Z,17.97
2022-09-22T09:35:15.951Z,18.35
2022-09-22T09:40:22.101Z,18.63
2022-09-22T09:52:20.401Z,19.04
2022-09-22T09:57:27.868Z,19.07
2022-09-22T10:02:32.988Z,19.50
2022-09-22T10:07:44.462Z,19.97
2022-09-22T10:12:47.145Z,19.94
2022-09-22T10:17:49.942Z,20.76
2022-09-22T10:22:55.035Z,21.07
2022-09-22T10:28:03.443Z,20.88
2022-09-22T10:33:18.329Z,20.87
2022-09-22T10:38:24.825Z,20.89
2022-09-22T10:43:37.920Z,21.48
2022-09-22T10:48:46.177Z,21.80
2022-09-22T10:54:13.405Z,22.61
2022-09-22T10:59:39.379Z,22.25
2022-09-22T11:04:55.474Z,18.91
2022-09-22T11:10:29.526Z,19.66
2022-09-22T11:15:47.375Z,19.71
2022-09-22T11:20:57.257Z,19.56
2022-09-22T11:26:18.793Z,19.13
2022-09-22T11:31:37.846Z,21.90
2022-09-22T11:36:51.594Z,25.26
2022-09-22T11:42:11.042Z,24.95
2022-09-22T11:47:42.326Z,23.18
2022-09-22T11:53:01.405Z,21.45
2022-09-22T11:58:10.759Z,18.85
2022-09-22T12:03:18.838Z,18.20
2022-09-22T12:08:24.082Z,18.15
2022-09-22T12:13:29.807Z,18.64
2022-09-22T12:18:42.578Z,18.59
2022-09-22T12:23:51.286Z,18.72
2022-09-22T12:28:57.934Z,19.03
2022-09-22T12:34:00.788Z,20.44
2022-09-22T12:39:18.153Z,25.11
2022-09-22T12:44:25.473Z,25.71
2022-09-22T12:49:28.285Z,27.01
2022-09-22T12:54:38.950Z,21.63
2022-09-22T13:00:08.053Z,19.46
2022-09-22T13:05:33.274Z,19.37
2022-09-22T13:10:42.547Z,19.53
2022-09-22T13:16:02.342Z,19.27
2022-09-22T13:21:20.349Z,19.68
2022-09-22T13:26:25.756Z,24.96
2022-09-22T13:31:36.585Z,29.14
2022-09-22T13:36:40.044Z,24.50
2022-09-22T13:41:47.253Z,21.23
2022-09-22T13:46:51.989Z,19.69
2022-09-22T13:51:58.624Z,19.87
2022-09-22T13:57:03.298Z,19.92
2022-09-22T14:02:10.249Z,21.31
2022-09-22T14:07:13.728Z,24.68
2022-09-22T14:12:17.248Z,26.75
2022-09-22T14:17:26.812Z,23.55
2022-09-22T14:22:32.773Z,20.87
2022-09-22T14:27:45.159Z,19.85
2022-09-22T14:32:52.227Z,19.86
2022-09-22T14:38:02.813Z,19.36
2022-09-22T14:43:24.215Z,19.19
2022-09-22T14:48:33.376Z,19.29
2022-09-22T14:53:43.510Z,19.28
2022-09-22T14:58:52.177Z,19.19
2022-09-22T15:04:00.763Z,19.27
2022-09-22T15:09:05.455Z,18.98
2022-09-22T15:14:42.039Z,18.56
2022-09-22T15:19:50.394Z,18.29
2022-09-22T15:24:53.098Z,19.21
2022-09-22T15:29:57.622Z,20.54
2022-09-22T15:35:01.671Z,20.95
2022-09-22T15:40:16.453Z,20.93
2022-09-22T15:45:22.462Z,20.74
2022-09-22T15:50:30.602Z,20.25
2022-09-22T15:55:34.353Z,19.49
2022-09-22T16:00:38.923Z,18.46
2022-09-22T16:05:44.824Z,18.10
2022-09-22T16:10:47.557Z,18.16
2022-09-22T16:15:51.999Z,17.86
2022-09-22T16:21:05.689Z,17.74
2022-09-22T16:26:08.456Z,18.18
2022-09-22T16:31:13.466Z,18.21
2022-09-22T16:36:17.639Z,18.20
2022-09-22T16:41:22.110Z,18.00
2022-09-22T16:46:29.940Z,17.73
2022-09-22T16:51:36.287Z,17.29
2022-09-22T16:56:39.510Z,16.81
2022-09-22T17:01:43.754Z,16.49
2022-09-22T17:06:48.673Z,16.19
2022-09-22T17:11:52.567Z,15.98
2022-09-22T17:16:57.267Z,15.74
2022-09-22T17:22:01.444Z,15.56
2022-09-22T17:27:05.572Z,15.41
2022-09-22T17:32:09.027Z,15.18
2022-09-22T17:37:15.626Z,15.01
2022-09-22T17:42:19.136Z,14.90
2022-09-22T17:47:38.773Z,14.77
2022-09-22T17:53:05.677Z,14.67
2022-09-22T17:58:10.199Z,14.60
2022-09-22T18:03:13.056Z,14.50
2022-09-22T18:08:17.901Z,14.40
2022-09-22T18:13:20.884Z,14.26
2022-09-22T18:18:24.031Z,14.10
2022-09-22T18:23:28.980Z,14.02
2022-09-22T18:28:31.828Z,14.01
2022-09-22T18:33:36.487Z,13.92
2022-09-22T18:38:42.293Z,13.83
2022-09-22T18:43:45.338Z,13.72
2022-09-22T18:48:49.436Z,13.62
2022-09-22T18:53:54.285Z,13.54
2022-09-22T18:58:57.174Z,13.46
2022-09-22T19:03:59.811Z,13.40
2022-09-22T19:09:03.964Z,13.30
2022-09-22T19:14:07.871Z,13.20
2022-09-22T19:19:10.617Z,13.16
2022-09-22T19:24:14.751Z,13.10
2022-09-22T19:29:17.539Z,13.11
2022-09-22T19:34:20.600Z,13.04
2022-09-22T19:39:25.466Z,13.01
2022-09-22T19:44:30.084Z,12.94
2022-09-22T19:49:32.863Z,12.85
2022-09-22T19:54:37.010Z,12.75
2022-09-22T19:59:39.892Z,12.65
2022-09-22T20:04:42.728Z,12.61
2022-09-22T20:09:46.867Z,12.50
2022-09-22T20:14:51.399Z,12.40
2022-09-22T20:19:55.179Z,12.25
2022-09-22T20:25:01.960Z,12.14
2022-09-22T20:30:06.574Z,12.06
2022-09-22T20:35:11.890Z,12.07
2022-09-22T20:40:20.391Z,12.01
2022-09-22T20:45:24.790Z,11.91
2022-09-22T20:50:27.654Z,11.80
2022-09-22T20:55:31.889Z,11.77
2022-09-22T21:00:35.017Z,11.70
2022-09-22T21:05:37.785Z,11.69
2022-09-22T21:10:41.931Z,11.62
2022-09-22T21:15:44.787Z,11.63
2022-09-22T21:20:47.654Z,11.54
2022-09-22T21:25:58.256Z,11.48
2022-09-22T21:31:02.401Z,11.42
2022-09-22T21:36:08.565Z,11.41
2022-09-22T21:41:14.660Z,11.42
2022-09-22T21:46:19.048Z,11.39
2022-09-22T21:51:22.976Z,11.35
2022-09-22T21:56:27.203Z,11.28
2022-09-22T22:01:32.335Z,11.25
2022-09-22T22:06:40.092Z,11.24
2022-09-22T22:11:46.643Z,11.19
2022-09-22T22:16:50.990Z,11.15
2022-09-22T22:21:54.841Z,11.14
2022-09-22T22:27:01.286Z,11.01
2022-09-22T22:32:05.334Z,10.87
2022-09-22T22:37:10.053Z,10.90
2022-09-22T22:42:14.232Z,10.82
2022-09-22T22:47:17.237Z,10.69
2022-09-22T22:52:20.168Z,10.65
2022-09-22T22:57:24.311Z,10.59
2022-09-22T23:02:27.089Z,10.54
2022-09-22T23:07:29.676Z,10.54
2022-09-22T23:12:34.514Z,10.50
2022-09-22T23:17:37.347Z,10.41
2022-09-22T23:22:39.909Z,10.33
2022-09-22T23:27:49.089Z,10.31
2022-09-22T23:32:51.834Z,10.23
2022-09-22T23:37:54.586Z,10.16
2022-09-22T23:42:59.694Z,10.09
2022-09-22T23:48:02.841Z,10.08
2022-09-22T23:53:05.601Z,10.08
2022-09-22T23:58:09.794Z,10.07
